createdAt,value
2023-03-04T00:03:13.929Z,33.5
2023-03-04T00:09:06.291Z,31.4
2023-03-04T00:15:01.801Z,28.8
2023-03-04T00:20:39.522Z,25.8
2023-03-04T00:26:16.852Z,25.1
2023-03-04T00:32:09.474Z,24.6
2023-03-04T00:38:02.458Z,31.1
2023-03-04T00:43:39.661Z,33.8
2023-03-04T00:49:01.807Z,31.1
2023-03-04T00:54:53.596Z,28.1
2023-03-04T01:00:30.503Z,25.7
2023-03-04T01:06:08.393Z,25.1
2023-03-04T01:11:46.007Z,24.5
2023-03-04T01:17:23.271Z,31.4
2023-03-04T01:22:44.524Z,33.5
2023-03-04T01:28:21.781Z,31.1
2023-03-04T01:33:59.478Z,28.3
2023-03-04T01:39:20.602Z,25.8
2023-03-04T01:44:58.219Z,25.2
2023-03-04T01:50:24.022Z,24.6
2023-03-04T01:55:45.503Z,30.7
2023-03-04T02:01:07.247Z,33.5
2023-03-04T02:06:29.611Z,31.4
2023-03-04T02:12:06.949Z,28.9
2023-03-04T02:17:14.417Z,25.8
2023-03-04T02:22:36.308Z,25.3
2023-03-04T02:28:13.483Z,24.3
2023-03-04T02:33:51.100Z,23.8
2023-03-04T02:39:28.403Z,30.6
2023-03-04T02:45:05.095Z,33.4
2023-03-04T02:50:41.930Z,31.6
2023-03-04T02:56:19.006Z,29.8
2023-03-04T03:01:25.120Z,25.9
2023-03-04T03:07:18.741Z,25.1
2023-03-04T03:12:56.564Z,24.2
2023-03-04T03:18:20.113Z,25.9
2023-03-04T03:23:57.801Z,31.7
2023-03-04T03:29:34.633Z,33.3
2023-03-04T03:35:11.684Z,31.1
2023-03-04T03:40:49.782Z,27.4
2023-03-04T03:46:11.422Z,25.6
2023-03-04T03:51:33.393Z,24.6
2023-03-04T03:57:11.635Z,24.1
2023-03-04T04:02:49.700Z,28.6
2023-03-04T04:08:27.188Z,32.5
2023-03-04T04:14:04.152Z,32.4
2023-03-04T04:19:26.426Z,30.6
2023-03-04T04:25:07.466Z,26.4
2023-03-04T04:30:44.597Z,25.4
2023-03-04T04:35:50.836Z,24.3
2023-03-04T04:41:27.907Z,23.9
2023-03-04T04:46:51.060Z,30.4
2023-03-04T04:52:29.287Z,32.8
2023-03-04T04:58:21.189Z,32.1
2023-03-04T05:03:59.093Z,30.3
2023-03-04T05:09:36.224Z,26.2
2023-03-04T05:15:13.305Z,25.3
2023-03-04T05:21:05.655Z,24.2
2023-03-04T05:26:42.268Z,25
2023-03-04T05:32:19.657Z,31.3
2023-03-04T05:37:58.157Z,33.3
2023-03-04T05:43:34.725Z,31.3
2023-03-04T05:49:12.005Z,29.3
2023-03-04T05:55:04.819Z,25.8
2023-03-04T06:00:57.508Z,24.8
2023-03-04T06:06:50.342Z,24.1
2023-03-04T06:12:27.326Z,28.9
2023-03-04T06:18:20.487Z,32.6
2023-03-04T06:24:12.334Z,32.4
2023-03-04T06:30:07.662Z,30.5
2023-03-04T06:35:45.094Z,26.2
2023-03-04T06:41:38.298Z,25.3
2023-03-04T06:47:31.712Z,24.3
2023-03-04T06:53:08.980Z,25.1
2023-03-04T06:59:01.034Z,31.8
2023-03-04T07:04:53.742Z,33.2
2023-03-04T07:10:45.312Z,31
2023-03-04T07:16:38.436Z,27.2
2023-03-04T07:22:32.246Z,25.5
2023-03-04T07:28:24.288Z,24.4
2023-03-04T07:34:16.880Z,23.9
2023-03-04T07:40:09.602Z,30.9
2023-03-04T07:46:02.377Z,33.6
2023-03-04T07:51:57.752Z,31.6
2023-03-04T07:57:50.537Z,30.3
2023-03-04T08:03:42.709Z,29.3
2023-03-04T08:09:34.999Z,30.6
2023-03-04T08:15:28.267Z,33.4
2023-03-04T08:21:22.166Z,31.7
2023-03-04T08:26:59.859Z,30.3
2023-03-04T08:32:39.072Z,29.3
2023-03-04T08:38:35.554Z,30.8
2023-03-04T08:44:12.462Z,33.6
2023-03-04T08:50:04.895Z,31.6
2023-03-04T08:55:59.154Z,30.3
2023-03-04T09:01:51.487Z,29.2
2023-03-04T09:07:44.360Z,31.1
2023-03-04T09:13:36.900Z,33.8
2023-03-04T09:19:39.312Z,31.4
2023-03-04T09:25:32.659Z,30.1
2023-03-04T09:31:25.416Z,29.1
2023-03-04T09:37:18.522Z,31.2
2023-03-04T09:42:55.801Z,33.4
2023-03-04T09:48:48.659Z,31.4
2023-03-04T09:54:44.561Z,30.1
2023-03-04T10:00:41.765Z,29.1
2023-03-04T10:06:34.630Z,29.5
2023-03-04T10:12:26.578Z,33.3
2023-03-04T10:18:20.739Z,31.6
2023-03-04T10:24:15.916Z,30.1
2023-03-04T10:29:53.607Z,28.9
2023-03-04T10:35:46.959Z,28
2023-03-04T10:41:38.787Z,30.4
2023-03-04T10:47:32.602Z,31.7
2023-03-04T10:53:25.179Z,30.5
2023-03-04T10:59:04.365Z,29.4
2023-03-04T11:04:57.108Z,28.4
2023-03-04T11:10:59.845Z,27.4
2023-03-04T11:16:51.886Z,26.4
2023-03-04T11:22:46.634Z,28.9
2023-03-04T11:28:53.149Z,32.2
2023-03-04T11:34:46.506Z,30.9
2023-03-04T11:40:40.243Z,29.8
2023-03-04T11:46:50.040Z,28.7
2023-03-04T11:52:42.384Z,27.6
2023-03-04T11:58:36.237Z,26.6
2023-03-04T12:04:30.347Z,28.6
2023-03-04T12:10:07.830Z,32.8
2023-03-04T12:16:02.438Z,31.1
2023-03-04T12:21:55.443Z,29.9
2023-03-04T12:27:33.512Z,28.9
2023-03-04T12:33:30.741Z,27.9
2023-03-04T12:39:09.270Z,26.9
2023-03-04T12:44:45.758Z,25.7
2023-03-04T12:50:40.803Z,31.5
2023-03-04T12:56:33.768Z,31.4
2023-03-04T13:02:11.600Z,30
2023-03-04T13:07:50.239Z,29
2023-03-04T13:13:45.559Z,28.1
2023-03-04T13:19:25.024Z,29.1
2023-03-04T13:25:19.005Z,32.5
2023-03-04T13:31:12.609Z,31.1
2023-03-04T13:37:07.777Z,29.9
2023-03-04T13:42:48.088Z,28.8
2023-03-04T13:48:42.004Z,27.9
2023-03-04T13:54:47.827Z,26.9
2023-03-04T14:00:44.336Z,25.9
2023-03-04T14:06:38.336Z,31.3
2023-03-04T14:12:16.139Z,31.6
2023-03-04T14:18:08.822Z,30.1
2023-03-04T14:24:02.425Z,29
2023-03-04T14:29:39.511Z,27.2
2023-03-04T14:35:42.994Z,32.3
2023-03-04T14:41:35.092Z,30.9
2023-03-04T14:47:39.559Z,29.7
2023-03-04T14:53:32.214Z,28.6
2023-03-04T14:59:23.997Z,30.6
2023-03-04T15:05:17.713Z,31.9
2023-03-04T15:11:11.123Z,30.2
2023-03-04T15:17:04.549Z,29.1
2023-03-04T15:22:41.238Z,28.1
2023-03-04T15:28:35.424Z,27.1
2023-03-04T15:34:28.336Z,26.3
2023-03-04T15:40:20.095Z,25.4
2023-03-04T15:45:57.419Z,24.8
2023-03-04T15:51:53.174Z,24.1
2023-03-04T15:57:31.580Z,27.7
2023-03-04T16:03:23.909Z,32.6
2023-03-04T16:09:16.908Z,36.2
2023-03-04T16:15:09.090Z,37.9
2023-03-04T16:21:01.680Z,38.2
2023-03-04T16:26:53.989Z,36.2
2023-03-04T16:32:33.866Z,39.1
2023-03-04T16:38:26.387Z,39.9
2023-03-04T16:44:04.113Z,39.7
2023-03-04T16:49:56.607Z,39.1
2023-03-04T16:55:51.658Z,38.5
2023-03-04T17:01:43.977Z,38.4
2023-03-04T17:07:38.804Z,39.1
2023-03-04T17:13:16.486Z,38
2023-03-04T17:18:53.618Z,38.4
2023-03-04T17:24:45.715Z,37.7
2023-03-04T17:30:22.380Z,37.3
2023-03-04T17:36:15.615Z,38.1
2023-03-04T17:41:52.839Z,37
2023-03-04T17:47:45.291Z,36.6
2023-03-04T17:53:21.682Z,36.3
2023-03-04T17:59:13.748Z,35.8
2023-03-04T18:04:50.995Z,36.7
2023-03-04T18:10:27.737Z,38.2
2023-03-04T18:16:20.360Z,36.9
2023-03-04T18:21:41.869Z,37.7
2023-03-04T18:27:18.670Z,36.8
2023-03-04T18:33:07.788Z,36.3
2023-03-04T18:38:45.152Z,35.2
2023-03-04T18:44:37.878Z,34.9
2023-03-04T18:50:30.838Z,37.6
2023-03-04T18:56:23.712Z,38.5
2023-03-04T19:02:16.181Z,37.5
2023-03-04T19:08:08.615Z,38.1
2023-03-04T19:13:47.165Z,39
2023-03-04T19:19:23.998Z,37.8
2023-03-04T19:25:01.097Z,38.7
2023-03-04T19:30:38.067Z,38.9
2023-03-04T19:36:30.803Z,38.6
2023-03-04T19:41:51.918Z,39.3
2023-03-04T19:47:14.575Z,39.6
2023-03-04T19:52:51.560Z,39.4
2023-03-04T19:58:28.919Z,38.2
2023-03-04T20:04:06.304Z,39.1
2023-03-04T20:09:27.979Z,37.8
2023-03-04T20:14:45.544Z,37.5
2023-03-04T20:20:23.060Z,37.1
2023-03-04T20:25:45.019Z,36.3
2023-03-04T20:31:22.636Z,37.4
2023-03-04T20:37:00.448Z,36.1
2023-03-04T20:42:49.458Z,34.9
2023-03-04T20:48:41.383Z,34.3
2023-03-04T20:54:18.163Z,33.9
2023-03-04T20:59:09.160Z,33.4
2023-03-04T21:05:01.714Z,32.9
2023-03-04T21:10:54.292Z,32.3
2023-03-04T21:16:47.441Z,31.6
2023-03-04T21:22:40.346Z,31.1
2023-03-04T21:28:36.366Z,30.5
2023-03-04T21:34:28.511Z,30.1
2023-03-04T21:40:06.230Z,29.7
2023-03-04T21:45:41.833Z,29.4
2023-03-04T21:51:36.734Z,29.1
2023-03-04T21:57:13.897Z,28.8
2023-03-04T22:02:37.032Z,28.4
2023-03-04T22:08:28.858Z,28.3
2023-03-04T22:14:06.518Z,28
2023-03-04T22:19:40.353Z,27.8
2023-03-04T22:25:02.038Z,27.6
2023-03-04T22:30:38.987Z,27.4
2023-03-04T22:35:47.140Z,27.2
2023-03-04T22:41:08.383Z,27
2023-03-04T22:46:31.064Z,26.8
2023-03-04T22:51:52.371Z,26.7
2023-03-04T22:57:29.500Z,26.2
2023-03-04T23:03:22.481Z,25.4
2023-03-04T23:09:13.972Z,24.9
2023-03-04T23:15:07.522Z,31.5
2023-03-04T23:21:00.299Z,31.3
2023-03-04T23:26:37.284Z,29.9
2023-03-04T23:32:31.155Z,28.9
2023-03-04T23:38:23.311Z,28.1
2023-03-04T23:44:15.316Z,27.2
2023-03-04T23:50:08.942Z,26.3
2023-03-04T23:55:46.027Z,25.6
